Damgracht — PBOF — position and weather

sailwx.info

Track history (hours):
 
Tides and Currents Weather Stations Pressure Air Temp Water Temp Dewpoint Dewpoint Depression Visibility Wind Speed Wind Dir Waves Ship Positions

Damgracht

Last reported at 2018-Feb-01 02:28 UTC. Time now 2018-Feb-23 07:04 UTC.
Position N 06°37' W 014°03'.
Warning: this ship's position is 22 days out of date.

Length 157 m; draft 8.6 m.

Type: Cargo ship. MMSI: 245955000.

Date/timePositionNaut miles runAvg speedWind from/ knotsBaromVisibWave heightAir tempDewpointWater temp
2018-Feb-01 02:28N 06°37' W 014°03'816.9
2018-Feb-01 02:00N 06°43' W 014°08'817.0
2018-Feb-01 01:30N 06°49' W 014°13'1517.4
2018-Feb-01 00:39N 07°00' W 014°23'317.6
2018-Feb-01 00:29N 07°03' W 014°25'917.7
2018-Feb-01 00:00N 07°09' W 014°30'9017.3
2018-Jan-31 18:48N 08°21' W 015°26'517.1
2018-Jan-31 18:30N 08°25' W 015°29'816.9
2018-Jan-31 18:00N 08°31' W 015°34'610.4
2018-Jan-31 17:25N 08°36' W 015°38'0 0.7
2018-Jan-31 16:58N 08°36' W 015°38'1 0.7
2018-Jan-31 15:37N 08°37' W 015°38'0 0.7
2018-Jan-31 15:29N 08°37' W 015°38'1 0.9
2018-Jan-31 14:49N 08°38' W 015°38'0 0.9
2018-Jan-31 14:28N 08°38' W 015°39'5 0.8
2018-Jan-31 08:22N 08°42' W 015°40'0 0.5
2018-Jan-31 07:34N 08°43' W 015°41'0 0.6
2018-Jan-31 07:23N 08°43' W 015°41'1 3.8
2018-Jan-31 07:00N 08°44' W 015°42'510.8
2018-Jan-31 06:30N 08°47' W 015°46'510.8
2018-Jan-31 06:00N 08°51' W 015°50'510.6
2018-Jan-31 05:30N 08°54' W 015°54'510.9
2018-Jan-31 05:00N 08°58' W 015°58'610.8
2018-Jan-31 04:28N 09°02' W 016°02'510.6
2018-Jan-31 04:00N 09°06' W 016°06'710.8
2018-Jan-31 03:24N 09°11' W 016°10'410.8
2018-Jan-31 03:00N 09°14' W 016°13'510.7
2018-Jan-31 02:30N 09°18' W 016°17'510.7
2018-Jan-31 02:01N 09°22' W 016°20'510.6
2018-Jan-31 01:30N 09°25' W 016°24'510.8
2018-Jan-31 01:00N 09°29' W 016°28'1110.8
2018-Jan-31 00:00N 09°37' W 016°35'710.9
2018-Jan-30 23:19N 09°43' W 016°41'410.8
2018-Jan-30 22:59N 09°45' W 016°43'510.7
2018-Jan-30 22:30N 09°49' W 016°47'1110.6
2018-Jan-30 21:28N 09°57' W 016°54'612.1
2018-Jan-30 21:00N 10°01' W 016°58'912.0
2018-Jan-30 20:13N 10°08' W 017°04'912.3
2018-Jan-30 19:30N 10°15' W 017°10'1312.3
2018-Jan-30 18:28N 10°24' W 017°19'612.7
2018-Jan-30 18:00N 10°28' W 017°24'813.3
2018-Jan-30 17:25N 10°34' W 017°29'613.4
2018-Jan-30 17:00N 10°38' W 017°33'  
2018-Jan-27 12:40N 27°37' W 015°14'316.7
2018-Jan-27 12:30N 27°39' W 015°13'816.8
2018-Jan-27 12:00N 27°47' W 015°09'816.9
2018-Jan-27 11:30N 27°55' W 015°06'816.6
2018-Jan-27 11:00N 28°03' W 015°03'816.3
2018-Jan-27 10:30N 28°10' W 014°60'816.4
2018-Jan-27 10:00N 28°18' W 014°56'816.5
2018-Jan-27 09:30N 28°25' W 014°52'816.5
2018-Jan-27 09:00N 28°32' W 014°47'  
2018-Jan-23 10:27N 49°15' W 005°14'612.7
2018-Jan-23 10:00N 49°18' W 005°07'612.1
2018-Jan-23 09:30N 49°20' W 004°58'612.6
2018-Jan-23 09:00N 49°23' W 004°50'4313.0
2018-Jan-23 05:43N 49°42' W 003°51'314.6
2018-Jan-23 05:29N 49°43' W 003°46'714.8
2018-Jan-23 05:00N 49°46' W 003°36'815.2
2018-Jan-23 04:30N 49°49' W 003°25'815.5
2018-Jan-23 04:00N 49°53' W 003°14'815.9
2018-Jan-23 03:30N 49°56' W 003°03'815.7
2018-Jan-23 03:00N 49°59' W 002°52'815.5
2018-Jan-23 02:30N 50°01' W 002°40'815.1
2018-Jan-23 01:58N 50°04' W 002°28'4313.0
2018-Jan-22 22:38N 50°16' W 001°23'1713.5
2018-Jan-22 21:23N 50°20' W 000°58'615.5
2018-Jan-22 21:00N 50°22' W 000°49'816.2
2018-Jan-22 20:30N 50°24' W 000°37'816.9
2018-Jan-22 20:00N 50°26' W 000°24'917.1
2018-Jan-22 19:31N 50°29' W 000°11'917.0
2018-Jan-22 19:00N 50°32' E 000°01'917.0
2018-Jan-22 18:30N 50°34' E 000°14'817.2
2018-Jan-22 18:01N 50°37' E 000°27'816.7
2018-Jan-22 17:31N 50°40' E 000°39'816.4
2018-Jan-22 17:00N 50°45' E 000°49'815.4
2018-Jan-22 16:29N 50°50' E 001°00'715.1
2018-Jan-22 16:00N 50°54' E 001°09'714.1
2018-Jan-22 15:29N 50°59' E 001°18'713.7
2018-Jan-22 15:00N 51°03' E 001°26'713.1
2018-Jan-22 14:30N 51°07' E 001°34'713.3
2018-Jan-22 14:00N 51°11' E 001°42'714.6
2018-Jan-22 13:30N 51°17' E 001°49'816.2
2018-Jan-22 13:00N 51°25' E 001°53'917.0
2018-Jan-22 12:30N 51°32' E 002°02'917.7
2018-Jan-22 12:00N 51°38' E 002°11'  
Track history (hours):
 
Tides and Currents Weather Stations Pressure Air Temp Water Temp Dewpoint Dewpoint Depression Visibility Wind Speed Wind Dir Waves Ship Positions

Damgracht

Last reported at 2018-Feb-01 02:28 UTC. Time now 2018-Feb-23 07:04 UTC.
Position N 06°37' W 014°03'.
Warning: this ship's position is 22 days out of date.

Length 157 m; draft 8.6 m.

Type: Cargo ship. MMSI: 245955000.

Date/timePositionNaut miles runAvg speedWind from/ knotsBaromVisibWave heightAir tempDewpointWater temp
2018-Feb-01 02:28N 06°37' W 014°03'816.9
2018-Feb-01 02:00N 06°43' W 014°08'817.0
2018-Feb-01 01:30N 06°49' W 014°13'1517.4
2018-Feb-01 00:39N 07°00' W 014°23'317.6
2018-Feb-01 00:29N 07°03' W 014°25'917.7
2018-Feb-01 00:00N 07°09' W 014°30'9017.3
2018-Jan-31 18:48N 08°21' W 015°26'517.1
2018-Jan-31 18:30N 08°25' W 015°29'816.9
2018-Jan-31 18:00N 08°31' W 015°34'610.4
2018-Jan-31 17:25N 08°36' W 015°38'0 0.7
2018-Jan-31 16:58N 08°36' W 015°38'1 0.7
2018-Jan-31 15:37N 08°37' W 015°38'0 0.7
2018-Jan-31 15:29N 08°37' W 015°38'1 0.9
2018-Jan-31 14:49N 08°38' W 015°38'0 0.9
2018-Jan-31 14:28N 08°38' W 015°39'5 0.8
2018-Jan-31 08:22N 08°42' W 015°40'0 0.5
2018-Jan-31 07:34N 08°43' W 015°41'0 0.6
2018-Jan-31 07:23N 08°43' W 015°41'1 3.8
2018-Jan-31 07:00N 08°44' W 015°42'510.8
2018-Jan-31 06:30N 08°47' W 015°46'510.8
2018-Jan-31 06:00N 08°51' W 015°50'510.6
2018-Jan-31 05:30N 08°54' W 015°54'510.9
2018-Jan-31 05:00N 08°58' W 015°58'610.8
2018-Jan-31 04:28N 09°02' W 016°02'510.6
2018-Jan-31 04:00N 09°06' W 016°06'710.8
2018-Jan-31 03:24N 09°11' W 016°10'410.8
2018-Jan-31 03:00N 09°14' W 016°13'510.7
2018-Jan-31 02:30N 09°18' W 016°17'510.7
2018-Jan-31 02:01N 09°22' W 016°20'510.6
2018-Jan-31 01:30N 09°25' W 016°24'510.8
2018-Jan-31 01:00N 09°29' W 016°28'1110.8
2018-Jan-31 00:00N 09°37' W 016°35'710.9
2018-Jan-30 23:19N 09°43' W 016°41'410.8
2018-Jan-30 22:59N 09°45' W 016°43'510.7
2018-Jan-30 22:30N 09°49' W 016°47'1110.6
2018-Jan-30 21:28N 09°57' W 016°54'612.1
2018-Jan-30 21:00N 10°01' W 016°58'912.0
2018-Jan-30 20:13N 10°08' W 017°04'912.3
2018-Jan-30 19:30N 10°15' W 017°10'1312.3
2018-Jan-30 18:28N 10°24' W 017°19'612.7
2018-Jan-30 18:00N 10°28' W 017°24'813.3
2018-Jan-30 17:25N 10°34' W 017°29'613.4
2018-Jan-30 17:00N 10°38' W 017°33'  
2018-Jan-27 12:40N 27°37' W 015°14'316.7
2018-Jan-27 12:30N 27°39' W 015°13'816.8
2018-Jan-27 12:00N 27°47' W 015°09'816.9
2018-Jan-27 11:30N 27°55' W 015°06'816.6
2018-Jan-27 11:00N 28°03' W 015°03'816.3
2018-Jan-27 10:30N 28°10' W 014°60'816.4
2018-Jan-27 10:00N 28°18' W 014°56'816.5
2018-Jan-27 09:30N 28°25' W 014°52'816.5
2018-Jan-27 09:00N 28°32' W 014°47'  
2018-Jan-23 10:27N 49°15' W 005°14'612.7
2018-Jan-23 10:00N 49°18' W 005°07'612.1
2018-Jan-23 09:30N 49°20' W 004°58'612.6
2018-Jan-23 09:00N 49°23' W 004°50'4313.0
2018-Jan-23 05:43N 49°42' W 003°51'314.6
2018-Jan-23 05:29N 49°43' W 003°46'714.8
2018-Jan-23 05:00N 49°46' W 003°36'815.2
2018-Jan-23 04:30N 49°49' W 003°25'815.5
2018-Jan-23 04:00N 49°53' W 003°14'815.9
2018-Jan-23 03:30N 49°56' W 003°03'815.7
2018-Jan-23 03:00N 49°59' W 002°52'815.5
2018-Jan-23 02:30N 50°01' W 002°40'815.1
2018-Jan-23 01:58N 50°04' W 002°28'4313.0
2018-Jan-22 22:38N 50°16' W 001°23'1713.5
2018-Jan-22 21:23N 50°20' W 000°58'615.5
2018-Jan-22 21:00N 50°22' W 000°49'816.2
2018-Jan-22 20:30N 50°24' W 000°37'816.9
2018-Jan-22 20:00N 50°26' W 000°24'917.1
2018-Jan-22 19:31N 50°29' W 000°11'917.0
2018-Jan-22 19:00N 50°32' E 000°01'917.0
2018-Jan-22 18:30N 50°34' E 000°14'817.2
2018-Jan-22 18:01N 50°37' E 000°27'816.7
2018-Jan-22 17:31N 50°40' E 000°39'816.4
2018-Jan-22 17:00N 50°45' E 000°49'815.4
2018-Jan-22 16:29N 50°50' E 001°00'715.1
2018-Jan-22 16:00N 50°54' E 001°09'714.1
2018-Jan-22 15:29N 50°59' E 001°18'713.7
2018-Jan-22 15:00N 51°03' E 001°26'713.1
2018-Jan-22 14:30N 51°07' E 001°34'713.3
2018-Jan-22 14:00N 51°11' E 001°42'714.6
2018-Jan-22 13:30N 51°17' E 001°49'816.2
2018-Jan-22 13:00N 51°25' E 001°53'917.0
2018-Jan-22 12:30N 51°32' E 002°02'917.7
2018-Jan-22 12:00N 51°38' E 002°11'  

Dump ship's entire track history